Casper, WY

2:31 AM MDT on May 22, 2015 (GMT -0600)
CY Ave | | Change Station
CLOSE
Current Station
Personal Weather Station
Location: Casper, WY
Elevation: 5227 ft
Nearby Weather Stations

Elev 5227 ft 42.83 °N, 106.35 °W | Updated 1 minute ago

Overcast
Overcast
47.1 °F
Feels Like 47 °F
N
2.0
Wind Variable Wind from South
Gusts 5.0 mph

Today
High -- | Low -- °F
--% Chance of Precip.
Yesterday
High -- | Low -- °F
Precip. -- in
5:36 AM 8:28 PM
Waxing Crescent, 19% visible
Pressure 30.01 in
Visibility 9.0 miles
Clouds Scattered Clouds 500 ft
Mostly Cloudy 4000 ft
Windchill 47 °F
Dew Point 40 °F
Humidity 77%
Rainfall 0.00 in
Snow Depth Not available.
UV 0 out of 12
Pollen 4.70 out of 12
Air Quality Not available.
Flu Activity Sporadic
SPECI KCPR 220817Z AUTO 11006KT 9SM SCT005 BKN040 07/06 A3001 RMK AO2 T00720056

More Conditions Fewer Conditions

Pressure 30.01 in
Visibility 9.0 miles
Clouds Scattered Clouds 500 ft
Mostly Cloudy 4000 ft
Windchill 47 °F
Dew Point 40 °F
Humidity 77%
Rainfall 0.00 in
Snow Depth Not available.
UV 0 out of 12
Pollen 4.70 out of 12
Air Quality Not available.
Flu Activity Sporadic
SPECI KCPR 220817Z AUTO 11006KT 9SM SCT005 BKN040 07/06 A3001 RMK AO2 T00720056

More Conditions Fewer Conditions

10-Day Weather Forecast

Almanac

Astronomy

May. 22, 2015 Rise Set
Actual Time
Civil Twilight
Nautical Twilight
Astronomical Twilight
Moon
Length of Visible Light
Length of Day
Tomorrow will be .
, % of the Moon is Illuminated

Today's Extremes

State Highs State Lows

Community

WunderPhotos

Upload Photos

1,823,197 photos uploaded!

WunderBlogs® & News

Nearby

Air Quality

  Air Quality AQ Index Pollutant
Not available.

Snow Depth

Station Depth Elevation

Earthquake Activity

City Distance Mag. Time & Date
Minimum magnitude displayed is 2.5.

Coastal Water Temperatures

Place Temperature

Stations

Nearby Weather Stations

Station Location Temp. Windchill Dew Point Humidity Wind Precip. Elev Updated Type